Grand Forks, ND

11:10 AM CDT on October 25, 2014 (GMT -0500)
KNDGRAND8 | Change Station
CLOSE
Current Station
Personal Weather Station
Location: Grand Forks, ND
Elevation: 830 ft
Nearby Weather Stations

Elev 830 ft 47.94 °N, 97.06 °W | Updated 14 seconds ago

Clear
Clear
52.8 °F
Feels Like 52.8 °F
N
5.4
Wind Variable Wind from WNW
Gusts 13.0 mph

Today
High -- | Low -- °F
--% Chance of Precip.
Yesterday
High -- | Low -- °F
Precip. -- in
8:02 AM 6:21 PM
Waxing Crescent, 3% visible
Pressure 30.10 in
Visibility 10.0 miles
Clouds Few 12000 ft
Dew Point 33 °F
Humidity 47%
Rainfall 0.00 in
Snow Depth Not available.
UV 2 out of 12
Pollen 1.60 out of 12
Air Quality Not available.
Flu Activity Sporadic
METAR KGFK 251553Z 30013G19KT 10SM FEW120 12/M01 A3008 RMK AO2 SLP191 T01171006

More Conditions Fewer Conditions

Pressure 30.10 in
Visibility 10.0 miles
Clouds Few 12000 ft
Dew Point 33 °F
Humidity 47%
Rainfall 0.00 in
Snow Depth Not available.
UV 2 out of 12
Pollen 1.60 out of 12
Air Quality Not available.
Flu Activity Sporadic
METAR KGFK 251553Z 30013G19KT 10SM FEW120 12/M01 A3008 RMK AO2 SLP191 T01171006

More Conditions Fewer Conditions

10-Day Weather Forecast

Almanac

Astronomy

Oct. 25, 2014 Rise Set
Actual Time 8:02 AM CDT 6:21 PM CDT
Civil Twilight 7:30 AM CDT 6:53 PM CDT
Nautical Twilight 6:54 AM CDT 7:29 PM CDT
Astronomical Twilight 6:18 AM CDT 8:05 PM CDT
Moon 9:48 AM CDT 7:38 PM CDT
Length of Visible Light 11h 22m
Length of Day
10h 19m
Tomorrow will be 3m 14s shorter.
Waxing Crescent, 3% of the Moon is Illuminated
Today
Waxing Crescent
Oct 30
First Quarter
Nov 6
Full
Nov 14
Last Quarter
Nov 22
New

Today's Extremes

State Highs State Lows

Community

WunderPhotos

Upload Photos

1,764,887 photos uploaded!

Nearby

Snow Depth

Station Depth Elevation
No new snow has been reported.

Earthquake Activity

City Distance Mag. Time & Date
No recent earthquake activity has been reported nearby.
Minimum magnitude displayed is 2.5.

Coastal Water Temperatures

Place Temperature
No Stations Reporting

Nearby Weather Stations